Time;durP1;ratioP1;P1;durP2;ratioP2;P2;SDS_P1;SDS_P2;PMS_P1;PMS_P2;Temp;Humidity;BMP_temperature;BMP_pressure;BME280_temperature;BME280_humidity;BME280_pressure;Samples;Min_cycle;Max_cycle;Signal;HPM_P1;HPM_P2
2022/01/17 00:01:42;;;;;;;9.95;8.23;;;20.90;54.20;;;;;;4952986;28;89621;-85
2022/01/17 00:04:10;;;;;;;8.68;7.78;;;20.90;54.20;;;;;;4953602;28;88383;-84
2022/01/17 00:06:36;;;;;;;9.98;8.25;;;20.90;54.40;;;;;;4952899;28;87284;-86
2022/01/17 00:09:02;;;;;;;10.93;8.32;;;20.90;54.20;;;;;;4953313;28;87678;-82
2022/01/17 00:11:28;;;;;;;10.40;8.50;;;20.90;54.40;;;;;;4953237;28;87879;-85
2022/01/17 00:13:55;;;;;;;9.93;8.38;;;20.90;54.50;;;;;;4951645;28;90001;-84
2022/01/17 00:16:28;;;;;;;9.75;8.18;;;20.90;54.40;;;;;;4953258;28;87772;-82
2022/01/17 00:19:18;;;;;;;10.05;8.30;;;20.90;54.30;;;;;;4952859;28;86932;-86
2022/01/17 00:21:53;;;;;;;9.55;8.25;;;20.80;54.30;;;;;;4952734;28;87897;-86
2022/01/17 00:24:21;;;;;;;11.00;8.40;;;20.80;54.30;;;;;;4952920;28;87505;-83
2022/01/17 00:26:47;;;;;;;9.10;8.20;;;20.80;54.90;;;;;;4953030;28;88470;-84
2022/01/17 00:29:13;;;;;;;10.43;9.32;;;20.80;54.20;;;;;;4952853;28;87695;-87
2022/01/17 00:31:39;;;;;;;9.88;8.50;;;20.80;54.20;;;;;;4952643;28;87967;-85
2022/01/17 00:34:04;;;;;;;10.75;8.23;;;20.80;54.10;;;;;;4951725;28;87436;-81
2022/01/17 00:36:30;;;;;;;9.77;8.77;;;20.80;54.20;;;;;;4951597;28;87576;-86
2022/01/17 00:38:56;;;;;;;9.65;8.32;;;20.80;54.10;;;;;;4953348;28;87508;-84
2022/01/17 00:41:21;;;;;;;9.57;8.63;;;20.80;54.20;;;;;;4952492;28;87478;-85
2022/01/17 00:43:47;;;;;;;9.65;8.65;;;20.80;54.10;;;;;;4953426;28;87477;-84
2022/01/17 00:46:13;;;;;;;9.65;8.65;;;20.80;54.00;;;;;;4953267;28;87829;-87
2022/01/17 00:48:38;;;;;;;10.05;8.63;;;20.80;54.10;;;;;;4952191;28;86972;-87
2022/01/17 00:51:04;;;;;;;9.15;8.25;;;20.80;54.10;;;;;;4952379;28;88907;-85
2022/01/17 00:53:30;;;;;;;9.82;8.80;;;20.80;54.10;;;;;;4952369;28;89120;-83
2022/01/17 00:55:56;;;;;;;10.32;8.65;;;20.80;54.00;;;;;;4952743;28;87694;-85
2022/01/17 00:58:21;;;;;;;9.02;8.13;;;20.80;54.00;;;;;;4967366;28;89128;-83
2022/01/17 01:00:47;;;;;;;9.68;8.65;;;20.80;54.00;;;;;;4944836;28;90633;-87
2022/01/17 01:03:13;;;;;;;8.88;7.90;;;20.80;54.10;;;;;;4951345;28;87931;-85
2022/01/17 01:05:39;;;;;;;9.63;8.18;;;20.70;53.80;;;;;;4951629;28;87865;-86
2022/01/17 01:08:07;;;;;;;10.40;8.90;;;20.70;53.80;;;;;;4952991;28;87447;-83
2022/01/17 01:10:39;;;;;;;10.52;8.63;;;20.70;53.70;;;;;;4952964;28;88285;-86
2022/01/17 01:13:04;;;;;;;9.63;8.48;;;20.70;53.70;;;;;;4953442;28;87960;-85
2022/01/17 01:15:47;;;;;;;9.68;7.80;;;20.70;53.80;;;;;;4952684;28;88446;-88
2022/01/17 01:18:19;;;;;;;10.50;8.65;;;20.70;53.70;;;;;;4953154;28;87249;-85
2022/01/17 01:21:04;;;;;;;9.95;8.10;;;20.70;54.00;;;;;;4953013;28;87989;-88
2022/01/17 01:29:02;;;;;;;9.57;8.43;;;20.70;53.80;;;;;;4953577;28;87588;-87
2022/01/17 01:31:41;;;;;;;8.93;7.93;;;20.70;53.80;;;;;;4940010;28;90555;-86
2022/01/17 01:34:08;;;;;;;10.13;8.23;;;20.70;53.80;;;;;;4953000;28;87330;-85
2022/01/17 01:36:34;;;;;;;10.02;9.02;;;20.70;53.70;;;;;;4953684;28;88004;-88
2022/01/17 01:39:08;;;;;;;9.57;8.38;;;20.70;53.80;;;;;;4952397;28;87582;-87
2022/01/17 01:41:40;;;;;;;9.00;8.10;;;20.60;53.60;;;;;;4951785;28;88943;-85
2022/01/17 01:44:11;;;;;;;9.18;8.23;;;20.60;53.60;;;;;;4951840;28;88743;-85
2022/01/17 01:46:37;;;;;;;9.43;8.32;;;20.60;53.60;;;;;;4952815;28;87652;-86
2022/01/17 01:49:02;;;;;;;9.13;8.23;;;20.60;53.50;;;;;;4951001;28;89921;-87
2022/01/17 01:51:28;;;;;;;10.15;8.52;;;20.60;54.20;;;;;;4952024;28;87631;-86
2022/01/17 01:53:53;;;;;;;9.73;8.60;;;20.60;53.60;;;;;;4950757;28;90621;-87
2022/01/17 01:56:19;;;;;;;9.30;8.27;;;20.60;54.20;;;;;;4952986;28;87361;-87
2022/01/17 01:58:45;;;;;;;10.00;8.45;;;20.60;53.60;;;;;;4952410;28;87411;-84
2022/01/17 02:01:10;;;;;;;9.32;8.30;;;20.60;53.50;;;;;;4952503;28;87806;-87
2022/01/17 02:03:36;;;;;;;9.35;8.23;;;20.60;53.60;;;;;;4952472;28;87447;-87
2022/01/17 02:06:02;;;;;;;9.10;8.00;;;20.60;53.60;;;;;;4949933;28;88516;-87
2022/01/17 02:08:30;;;;;;;10.75;9.23;;;20.60;53.70;;;;;;4951740;28;87269;-86
2022/01/17 02:10:56;;;;;;;8.88;7.85;;;20.60;53.40;;;;;;4951600;28;87829;-87
2022/01/17 02:13:21;;;;;;;9.10;8.18;;;20.50;53.50;;;;;;4951986;28;88739;-84
2022/01/17 02:15:48;;;;;;;9.82;8.48;;;20.50;53.40;;;;;;4952169;28;87305;-87
2022/01/17 02:18:29;;;;;;;9.50;8.13;;;20.50;53.40;;;;;;4951325;28;87266;-84
2022/01/17 02:21:11;;;;;;;11.18;8.70;;;20.50;53.40;;;;;;4951738;28;88425;-86
2022/01/17 02:23:37;;;;;;;10.60;9.02;;;20.60;53.50;;;;;;4952496;28;86790;-87
2022/01/17 02:26:03;;;;;;;10.00;8.90;;;20.60;53.40;;;;;;4940945;28;87488;-85
2022/01/17 02:28:28;;;;;;;8.85;7.95;;;20.50;53.30;;;;;;4951970;28;87338;-83
2022/01/17 02:30:54;;;;;;;9.55;8.27;;;20.50;53.20;;;;;;4951378;28;88653;-88
2022/01/17 02:33:20;;;;;;;9.40;8.20;;;20.50;53.30;;;;;;4951313;28;88773;-85
2022/01/17 02:35:47;;;;;;;9.40;7.75;;;20.50;53.30;;;;;;4949728;28;87694;-88
2022/01/17 02:38:13;;;;;;;9.40;8.43;;;20.50;53.40;;;;;;4951367;28;87191;-84
2022/01/17 02:40:38;;;;;;;9.85;8.40;;;20.50;53.40;;;;;;4951572;28;87807;-86
2022/01/17 02:43:07;;;;;;;9.13;7.80;;;20.50;53.20;;;;;;4950733;28;88049;-83
2022/01/17 02:46:24;;;;;;;9.57;8.57;;;20.50;53.30;;;;;;4950925;28;87746;-85
2022/01/17 02:48:29;;;;;;;9.40;8.43;;;20.50;53.20;;;;;;4950616;28;88176;-85
2022/01/17 02:50:55;;;;;;;9.82;8.25;;;20.40;53.20;;;;;;4951532;28;87863;-86
2022/01/17 02:53:21;;;;;;;10.13;8.32;;;20.40;53.10;;;;;;4950828;28;87607;-86
2022/01/17 02:55:50;;;;;;;9.95;8.88;;;20.40;53.20;;;;;;4951384;28;88294;-86
2022/01/17 02:58:20;;;;;;;9.77;8.70;;;20.40;53.10;;;;;;4954719;28;87457;-85
2022/01/17 03:00:47;;;;;;;9.93;8.68;;;20.40;53.10;;;;;;4954742;28;88685;-86
2022/01/17 03:03:17;;;;;;;9.77;8.48;;;20.40;53.20;;;;;;4954859;28;87697;-85
2022/01/17 03:05:52;;;;;;;9.00;7.97;;;20.40;53.10;;;;;;4955107;28;87083;-82
2022/01/17 03:08:22;;;;;;;9.55;8.30;;;20.40;53.10;;;;;;4969187;28;88371;-85
2022/01/17 03:10:48;;;;;;;8.90;8.00;;;20.50;53.10;;;;;;4954966;28;88193;-86
2022/01/17 03:13:25;;;;;;;9.98;8.88;;;20.40;53.00;;;;;;4954342;28;87640;-85
2022/01/17 03:16:02;;;;;;;10.25;8.52;;;20.40;53.10;;;;;;4952886;28;87869;-83
2022/01/17 03:18:30;;;;;;;9.73;8.73;;;20.40;52.90;;;;;;4954495;28;87656;-86
2022/01/17 03:20:58;;;;;;;10.17;9.10;;;20.40;53.00;;;;;;4953255;28;91529;-86
2022/01/17 03:23:24;;;;;;;9.63;8.50;;;20.40;53.00;;;;;;4953814;28;88320;-83
2022/01/17 03:25:50;;;;;;;10.32;8.80;;;20.40;53.10;;;;;;4954900;28;87214;-84
2022/01/17 03:28:16;;;;;;;9.50;8.50;;;20.40;52.90;;;;;;4953969;28;87575;-87
2022/01/17 03:30:46;;;;;;;9.70;8.30;;;20.40;52.90;;;;;;4954645;28;87516;-84
2022/01/17 03:33:14;;;;;;;9.95;8.95;;;20.40;53.10;;;;;;4954176;28;87226;-80
2022/01/17 03:35:41;;;;;;;9.98;8.95;;;20.40;52.90;;;;;;4969761;28;87762;-86
2022/01/17 03:38:09;;;;;;;9.57;8.55;;;20.40;52.90;;;;;;4954232;28;86613;-87
2022/01/17 03:40:35;;;;;;;9.63;8.63;;;20.40;52.70;;;;;;4954662;28;88763;-86
2022/01/17 03:43:02;;;;;;;8.77;7.88;;;20.30;52.80;;;;;;4953947;28;88088;-84
2022/01/17 03:45:27;;;;;;;10.05;9.05;;;20.40;52.80;;;;;;4952901;28;88567;-87
2022/01/17 03:47:53;;;;;;;9.13;8.18;;;20.30;52.90;;;;;;4953934;28;88194;-86
2022/01/17 03:50:22;;;;;;;9.60;8.48;;;20.30;52.80;;;;;;4954996;28;88126;-84
2022/01/17 03:52:48;;;;;;;9.60;8.60;;;20.30;52.70;;;;;;4959331;28;87550;-86
2022/01/17 03:55:17;;;;;;;9.20;8.23;;;20.30;53.20;;;;;;4958336;28;87141;-86
2022/01/17 03:57:44;;;;;;;10.37;9.27;;;20.30;53.00;;;;;;4956223;28;89445;-88
2022/01/17 04:00:16;;;;;;;9.93;8.93;;;20.30;52.80;;;;;;4957782;28;88143;-82
2022/01/17 04:02:42;;;;;;;9.60;8.60;;;20.30;52.90;;;;;;4958021;28;86851;-86
2022/01/17 04:05:19;;;;;;;9.30;8.20;;;20.30;52.80;;;;;;4957957;28;87687;-86
2022/01/17 04:07:45;;;;;;;9.18;8.10;;;20.30;52.70;;;;;;4955953;28;88114;-87
2022/01/17 04:10:11;;;;;;;8.80;7.85;;;20.30;53.50;;;;;;4956273;28;88531;-86
2022/01/17 04:12:37;;;;;;;8.98;8.07;;;20.30;52.80;;;;;;4957665;28;88211;-85
2022/01/17 04:15:03;;;;;;;9.18;8.15;;;20.30;52.90;;;;;;4957588;28;88292;-85
2022/01/17 04:17:29;;;;;;;9.73;8.68;;;20.30;52.90;;;;;;4957757;28;86971;-86
2022/01/17 04:20:03;;;;;;;9.55;8.55;;;20.20;52.80;;;;;;4957647;28;88497;-86
2022/01/17 04:22:34;;;;;;;10.20;9.05;;;20.20;52.60;;;;;;4958009;28;87299;-86
2022/01/17 04:24:59;;;;;;;9.65;8.68;;;20.20;52.60;;;;;;4957964;28;87352;-87
2022/01/17 04:27:25;;;;;;;9.25;8.35;;;20.30;52.60;;;;;;4957657;28;86958;-87
2022/01/17 04:29:51;;;;;;;9.60;8.27;;;20.20;52.50;;;;;;4954530;28;90129;-86
2022/01/17 04:32:17;;;;;;;9.75;8.75;;;20.20;52.70;;;;;;4957433;28;87428;-86
2022/01/17 04:34:42;;;;;;;10.52;8.93;;;20.20;52.60;;;;;;4957332;28;88029;-86
2022/01/17 04:37:09;;;;;;;9.98;8.80;;;20.20;52.60;;;;;;4957754;28;87955;-87
2022/01/17 04:39:52;;;;;;;8.98;8.07;;;20.20;52.60;;;;;;4957462;28;87698;-84
2022/01/17 04:42:25;;;;;;;11.13;8.90;;;20.20;52.70;;;;;;4955744;28;87181;-87
2022/01/17 04:45:11;;;;;;;10.00;8.68;;;20.20;52.60;;;;;;4957279;28;88230;-85
2022/01/17 04:47:38;;;;;;;9.63;8.40;;;20.20;52.80;;;;;;4956098;28;87605;-87
2022/01/17 04:50:07;;;;;;;10.55;8.80;;;20.20;52.60;;;;;;4957232;28;87870;-86
2022/01/17 04:52:36;;;;;;;9.70;8.30;;;20.20;52.60;;;;;;4957167;28;87215;-87
2022/01/17 04:55:14;;;;;;;9.65;8.65;;;20.20;52.70;;;;;;4957920;28;86809;-85
2022/01/17 04:57:40;;;;;;;9.65;8.52;;;20.20;52.80;;;;;;4956691;28;86941;-86
2022/01/17 05:00:08;;;;;;;9.85;8.45;;;20.20;53.30;;;;;;4955430;28;89101;-86
2022/01/17 05:02:34;;;;;;;9.00;8.10;;;20.20;52.60;;;;;;4956371;28;88685;-85
2022/01/17 05:04:59;;;;;;;10.48;8.75;;;20.20;53.30;;;;;;4955818;28;86912;-88
2022/01/17 05:07:25;;;;;;;9.55;8.45;;;20.20;52.60;;;;;;4955729;28;87288;-87
2022/01/17 05:09:51;;;;;;;8.98;7.95;;;20.10;52.50;;;;;;4955294;28;88048;-84
2022/01/17 05:12:16;;;;;;;9.00;8.10;;;20.10;52.50;;;;;;4955232;28;87997;-86
2022/01/17 05:14:47;;;;;;;9.00;7.82;;;20.20;52.40;;;;;;4955557;28;87881;-86
2022/01/17 05:17:43;;;;;;;9.05;8.07;;;20.20;52.40;;;;;;4955701;28;87226;-87
2022/01/17 05:20:11;;;;;;;9.32;8.32;;;20.10;52.50;;;;;;4969288;28;89532;-84
2022/01/17 05:22:38;;;;;;;10.10;8.80;;;20.10;52.50;;;;;;4955501;28;87253;-86
2022/01/17 05:25:07;;;;;;;9.75;8.75;;;20.20;52.40;;;;;;4954567;28;88706;-84
2022/01/17 05:27:34;;;;;;;9.32;8.15;;;20.10;52.40;;;;;;4955872;28;87443;-87
2022/01/17 05:30:00;;;;;;;9.98;8.93;;;20.10;52.50;;;;;;4952247;28;90585;-86
2022/01/17 05:32:26;;;;;;;9.80;8.80;;;20.10;52.50;;;;;;4952867;28;87732;-87
2022/01/17 05:34:52;;;;;;;9.57;8.57;;;20.10;52.50;;;;;;4952794;28;86946;-84
2022/01/17 05:37:17;;;;;;;9.48;8.50;;;20.10;52.40;;;;;;4954055;28;87540;-84
2022/01/17 05:39:43;;;;;;;10.43;9.07;;;20.10;52.30;;;;;;4954527;28;87845;-86
2022/01/17 05:42:14;;;;;;;9.73;8.82;;;20.10;52.50;;;;;;4953820;28;87469;-86
2022/01/17 05:44:40;;;;;;;9.45;8.23;;;20.10;52.40;;;;;;4953532;28;87346;-84
2022/01/17 05:47:06;;;;;;;9.23;7.80;;;20.10;52.40;;;;;;4952555;28;87820;-87
2022/01/17 05:49:31;;;;;;;9.70;8.70;;;20.10;52.50;;;;;;4953083;28;88746;-86
2022/01/17 05:51:57;;;;;;;10.00;8.50;;;20.10;52.40;;;;;;4951670;28;89960;-84
2022/01/17 05:54:22;;;;;;;10.27;8.95;;;20.10;52.30;;;;;;4952577;28;87588;-84
2022/01/17 05:56:48;;;;;;;10.27;9.02;;;20.10;52.40;;;;;;4951716;28;88012;-87
2022/01/17 05:59:21;;;;;;;9.90;8.90;;;20.10;52.60;;;;;;4953083;28;88078;-80
2022/01/17 06:01:47;;;;;;;9.52;8.52;;;20.00;52.30;;;;;;4953507;28;87564;-85
2022/01/17 06:04:12;;;;;;;9.88;8.88;;;20.00;52.30;;;;;;4952836;28;87139;-85
2022/01/17 06:06:38;;;;;;;10.20;9.18;;;20.10;52.40;;;;;;4952648;28;87227;-87
2022/01/17 06:09:04;;;;;;;10.02;8.80;;;20.10;52.50;;;;;;4950830;28;87643;-85
2022/01/17 06:11:30;;;;;;;9.68;8.68;;;20.00;52.30;;;;;;4951686;28;87315;-87
2022/01/17 06:13:57;;;;;;;9.60;8.35;;;20.10;52.50;;;;;;4951456;28;88287;-85
2022/01/17 06:16:23;;;;;;;10.77;8.77;;;20.00;52.40;;;;;;4951388;28;87185;-86
2022/01/17 06:18:49;;;;;;;10.23;9.13;;;20.00;52.20;;;;;;4950946;28;88051;-86
2022/01/17 06:21:15;;;;;;;9.85;8.70;;;20.00;52.30;;;;;;4950657;28;87574;-86
2022/01/17 06:23:40;;;;;;;9.70;8.77;;;20.00;52.40;;;;;;4951116;28;87448;-87
2022/01/17 06:26:06;;;;;;;10.75;8.23;;;20.00;52.40;;;;;;4950901;28;87733;-87
2022/01/17 06:28:32;;;;;;;9.60;8.43;;;20.00;52.40;;;;;;4950319;28;88370;-82
2022/01/17 06:30:57;;;;;;;9.63;8.63;;;20.00;52.30;;;;;;4949998;28;87389;-84
2022/01/17 06:33:23;;;;;;;9.65;8.23;;;20.00;52.30;;;;;;4950848;28;87940;-85
2022/01/17 06:35:49;;;;;;;9.93;8.68;;;20.00;52.30;;;;;;4965291;28;89921;-86
2022/01/17 06:38:14;;;;;;;10.30;9.18;;;20.00;52.30;;;;;;4950418;28;88878;-86
2022/01/17 06:40:40;;;;;;;9.57;8.68;;;20.00;52.40;;;;;;4950986;28;88095;-85
2022/01/17 06:43:08;;;;;;;10.20;9.07;;;20.00;52.30;;;;;;4951077;28;87330;-84
2022/01/17 06:45:45;;;;;;;9.63;8.63;;;20.00;52.30;;;;;;4950104;28;87852;-86
2022/01/17 06:48:11;;;;;;;9.85;8.85;;;19.90;52.30;;;;;;4950254;28;87673;-87
2022/01/17 06:50:37;;;;;;;10.48;9.07;;;20.00;52.30;;;;;;4951250;28;87367;-86
2022/01/17 06:53:03;;;;;;;10.25;9.05;;;20.00;52.30;;;;;;4950989;28;87514;-84
2022/01/17 06:55:29;;;;;;;10.02;8.75;;;19.90;52.30;;;;;;4950470;28;86939;-83
2022/01/17 06:57:54;;;;;;;9.52;8.52;;;19.90;52.20;;;;;;4949721;28;88993;-86
2022/01/17 07:00:20;;;;;;;9.77;8.77;;;19.90;52.20;;;;;;4951023;28;87387;-87
2022/01/17 07:02:46;;;;;;;10.00;8.90;;;19.90;52.20;;;;;;4951004;28;88608;-86
2022/01/17 07:05:13;;;;;;;8.75;7.95;;;19.90;52.20;;;;;;4950526;28;88071;-87
2022/01/17 07:07:39;;;;;;;9.55;8.55;;;19.90;52.20;;;;;;4951177;28;88199;-85
2022/01/17 07:10:05;;;;;;;9.18;8.27;;;19.90;52.30;;;;;;4949894;28;87980;-86
2022/01/17 07:12:31;;;;;;;10.18;8.40;;;19.90;52.20;;;;;;4950384;28;87716;-82
2022/01/17 07:14:57;;;;;;;9.52;8.52;;;19.90;52.30;;;;;;4950609;28;87879;-87
2022/01/17 07:17:22;;;;;;;9.63;8.65;;;19.90;52.30;;;;;;4948563;28;90845;-86
2022/01/17 07:19:48;;;;;;;10.18;9.10;;;19.90;52.20;;;;;;4950322;28;87573;-86
2022/01/17 07:22:14;;;;;;;9.73;8.73;;;19.90;52.30;;;;;;4950548;28;87441;-87
2022/01/17 07:24:40;;;;;;;9.60;8.55;;;19.90;52.20;;;;;;4949869;28;87567;-82
2022/01/17 07:27:06;;;;;;;10.43;9.32;;;19.90;52.20;;;;;;4949898;28;88428;-85
2022/01/17 07:29:40;;;;;;;9.85;8.80;;;19.80;52.10;;;;;;4950322;28;88108;-81
2022/01/17 07:32:07;;;;;;;9.60;8.35;;;19.90;52.20;;;;;;4950647;28;86966;-84
2022/01/17 07:34:32;;;;;;;9.90;8.80;;;19.90;52.10;;;;;;4949821;28;87312;-85
2022/01/17 07:36:59;;;;;;;9.40;8.50;;;19.90;52.10;;;;;;4950029;28;87863;-86
2022/01/17 07:39:26;;;;;;;9.85;8.85;;;19.90;52.20;;;;;;4949592;28;87378;-85
2022/01/17 07:41:52;;;;;;;9.68;8.68;;;19.90;52.20;;;;;;4949839;28;87670;-83
2022/01/17 07:44:23;;;;;;;11.30;8.48;;;19.80;51.90;;;;;;4953411;28;86598;-85
2022/01/17 07:46:54;;;;;;;10.45;9.13;;;19.90;52.20;;;;;;4953292;28;88266;-87
2022/01/17 07:49:21;;;;;;;12.18;9.00;;;19.80;52.10;;;;;;4952743;28;87477;-83
2022/01/17 07:51:59;;;;;;;12.18;10.13;;;19.80;52.20;;;;;;4952895;28;88238;-84
2022/01/17 07:54:37;;;;;;;10.25;9.02;;;19.90;52.90;;;;;;4954216;28;87432;-86
2022/01/17 07:57:04;;;;;;;12.90;9.07;;;19.90;52.80;;;;;;4951924;28;90441;-85
2022/01/17 07:59:30;;;;;;;12.13;9.35;;;20.00;52.80;;;;;;4952547;28;87676;-85
2022/01/17 08:01:56;;;;;;;10.65;9.55;;;20.10;53.00;;;;;;4953443;28;87495;-87
2022/01/17 08:04:22;;;;;;;11.63;9.10;;;20.10;53.40;;;;;;4953778;28;87925;-85
2022/01/17 08:06:49;;;;;;;13.73;9.73;;;20.10;53.60;;;;;;4954596;28;88119;-87
2022/01/17 08:09:22;;;;;;;10.02;9.02;;;20.20;53.40;;;;;;4955190;28;86930;-84
2022/01/17 08:11:51;;;;;;;10.10;9.02;;;20.30;53.50;;;;;;4968440;28;87687;-81
2022/01/17 08:14:16;;;;;;;11.83;9.10;;;20.30;53.40;;;;;;4944922;28;87920;-80
2022/01/17 08:16:42;;;;;;;12.98;10.07;;;20.30;53.80;;;;;;4949556;28;88459;-84
2022/01/17 08:19:08;;;;;;;13.63;11.27;;;20.30;53.40;;;;;;4951093;28;88453;-79
2022/01/17 08:21:33;;;;;;;10.52;8.48;;;20.40;53.40;;;;;;4949448;28;87478;-82
2022/01/17 08:24:00;;;;;;;10.95;8.63;;;20.40;53.60;;;;;;4949848;28;87482;-85
2022/01/17 08:26:26;;;;;;;12.50;10.18;;;20.40;54.20;;;;;;4950996;28;87714;-79
2022/01/17 08:28:54;;;;;;;11.52;9.50;;;20.40;53.20;;;;;;4951649;28;88082;-83
2022/01/17 08:31:26;;;;;;;11.15;8.43;;;20.40;53.40;;;;;;4950030;28;87452;-84
2022/01/17 08:33:52;;;;;;;10.65;9.35;;;20.40;53.30;;;;;;4926732;28;87563;-83
2022/01/17 08:36:20;;;;;;;10.07;8.50;;;20.40;53.20;;;;;;4950270;28;88279;-82
2022/01/17 08:38:47;;;;;;;10.07;8.27;;;20.40;53.40;;;;;;4951249;28;87784;-85
2022/01/17 08:41:13;;;;;;;11.23;9.75;;;20.40;53.50;;;;;;4952764;28;88421;-80
2022/01/17 08:43:38;;;;;;;11.15;9.43;;;20.40;53.10;;;;;;4951037;28;87743;-81
2022/01/17 08:46:06;;;;;;;10.65;9.05;;;20.40;53.10;;;;;;4950192;28;87375;-83
2022/01/17 08:48:31;;;;;;;13.40;8.60;;;20.40;53.80;;;;;;4950073;28;88735;-80
2022/01/17 08:50:57;;;;;;;11.65;9.90;;;20.50;53.50;;;;;;4951332;28;87490;-79
2022/01/17 08:53:23;;;;;;;11.48;9.10;;;20.50;53.30;;;;;;4949315;28;88436;-79
2022/01/17 08:55:48;;;;;;;12.27;9.57;;;20.50;53.20;;;;;;4949983;28;87985;-84
2022/01/17 08:58:16;;;;;;;10.57;8.52;;;20.50;53.20;;;;;;4948729;28;87027;-80
2022/01/17 09:00:42;;;;;;;13.82;10.05;;;20.50;53.60;;;;;;4949563;28;87407;-85
2022/01/17 09:03:08;;;;;;;17.83;13.82;;;20.60;53.30;;;;;;4948851;28;88458;-84
2022/01/17 09:05:34;;;;;;;24.63;15.50;;;20.50;51.30;;;;;;4949458;28;88835;-80
2022/01/17 09:08:01;;;;;;;25.30;14.63;;;20.50;50.70;;;;;;4949581;28;88741;-80
2022/01/17 09:10:33;;;;;;;21.25;13.70;;;20.50;50.90;;;;;;4949681;28;88841;-82
2022/01/17 09:13:01;;;;;;;18.85;14.13;;;20.50;51.40;;;;;;4949097;28;87779;-82
2022/01/17 09:15:26;;;;;;;20.67;13.05;;;20.50;53.10;;;;;;4950128;28;88193;-79
2022/01/17 09:17:52;;;;;;;17.65;12.45;;;20.50;54.30;;;;;;4949800;28;87392;-82
2022/01/17 09:20:18;;;;;;;22.63;13.70;;;20.50;54.60;;;;;;4950801;28;87433;-84
2022/01/17 09:22:43;;;;;;;22.90;14.18;;;20.50;54.70;;;;;;4955618;28;89800;-81
2022/01/17 09:25:10;;;;;;;21.20;13.95;;;20.50;55.30;;;;;;4950322;28;88330;-82
2022/01/17 09:27:36;;;;;;;24.55;13.95;;;20.50;55.60;;;;;;4950866;28;87719;-81
2022/01/17 09:30:15;;;;;;;21.15;12.98;;;20.60;55.70;;;;;;4950775;28;89001;-81
2022/01/17 09:32:42;;;;;;;27.05;15.32;;;20.60;55.40;;;;;;4950949;28;87524;-81
2022/01/17 09:35:09;;;;;;;19.25;12.73;;;20.60;54.30;;;;;;4949616;28;87565;-86
2022/01/17 09:37:35;;;;;;;18.05;11.43;;;20.60;54.40;;;;;;4950089;28;87583;-81
2022/01/17 09:40:01;;;;;;;25.88;11.45;;;20.60;54.80;;;;;;4951259;28;88433;-83
2022/01/17 09:42:27;;;;;;;14.68;10.52;;;20.70;54.30;;;;;;4951108;28;87706;-82
2022/01/17 09:45:03;;;;;;;20.27;12.00;;;20.70;54.40;;;;;;4949976;28;88080;-85
2022/01/17 09:47:29;;;;;;;18.50;12.00;;;20.70;54.40;;;;;;4949704;28;87243;-80
2022/01/17 09:49:56;;;;;;;16.75;11.98;;;20.70;54.60;;;;;;4949184;28;87360;-79
2022/01/17 09:54:53;;;;;;;19.47;11.93;;;20.70;55.00;;;;;;4949538;28;88638;-80
2022/01/17 09:57:19;;;;;;;17.38;10.07;;;20.70;54.90;;;;;;4947409;28;88177;-80
2022/01/17 09:59:45;;;;;;;18.40;11.10;;;20.70;55.00;;;;;;4951164;28;87350;-84
2022/01/17 10:02:12;;;;;;;18.67;10.70;;;20.70;55.20;;;;;;4951482;28;87328;-81
2022/01/17 10:04:38;;;;;;;17.83;11.60;;;20.70;55.20;;;;;;4950520;28;88588;-80
2022/01/17 10:07:06;;;;;;;12.57;9.93;;;20.70;55.30;;;;;;4948704;28;87742;-82
2022/01/17 10:09:33;;;;;;;19.42;11.15;;;20.70;55.60;;;;;;4951037;28;87436;-80
2022/01/17 10:12:09;;;;;;;14.68;9.15;;;20.70;55.80;;;;;;4950642;28;87135;-81
2022/01/17 10:15:05;;;;;;;17.10;10.52;;;20.70;56.10;;;;;;4948519;28;87954;-81
2022/01/17 10:17:57;;;;;;;18.58;10.45;;;20.70;56.20;;;;;;4948075;28;88046;-80
2022/01/17 10:20:23;;;;;;;18.30;10.00;;;20.70;56.40;;;;;;4947461;28;88899;-81
2022/01/17 10:23:29;;;;;;;16.00;10.57;;;20.70;56.30;;;;;;4948946;28;87046;-79
2022/01/17 10:26:07;;;;;;;16.15;10.50;;;20.70;56.40;;;;;;4949037;28;88114;-83
2022/01/17 10:36:47;;;;;;;35.55;15.30;;;20.80;56.20;;;;;;4942575;28;88490;-82
2022/01/17 10:39:13;;;;;;;34.95;15.57;;;20.70;56.10;;;;;;4949194;28;87213;-80
2022/01/17 10:41:39;;;;;;;35.50;16.23;;;20.70;55.90;;;;;;4949713;28;87387;-79
2022/01/17 10:44:06;;;;;;;39.92;17.02;;;20.70;56.50;;;;;;4949547;28;87845;-79
2022/01/17 10:46:31;;;;;;;39.67;14.80;;;20.70;55.80;;;;;;4949063;28;89016;-81
2022/01/17 10:48:58;;;;;;;26.55;12.50;;;20.70;56.00;;;;;;4948600;28;88239;-79
2022/01/17 10:51:34;;;;;;;23.50;12.77;;;20.70;55.90;;;;;;4948876;28;87314;-81
2022/01/17 10:54:17;;;;;;;23.48;11.68;;;20.80;56.10;;;;;;4948462;28;88061;-81
2022/01/17 10:56:50;;;;;;;24.35;11.90;;;20.70;56.00;;;;;;4948556;28;87905;-79
2022/01/17 10:59:27;;;;;;;34.22;13.88;;;20.70;55.90;;;;;;4949550;28;87724;-79
2022/01/17 11:01:54;;;;;;;21.00;12.02;;;20.80;56.00;;;;;;4949560;28;88141;-79
2022/01/17 11:04:34;;;;;;;27.98;14.38;;;20.70;55.60;;;;;;4949508;28;86915;-81
2022/01/17 11:07:05;;;;;;;32.50;15.48;;;20.80;55.60;;;;;;4948855;28;88218;-81
2022/01/17 11:09:39;;;;;;;32.08;15.15;;;20.80;55.50;;;;;;4948643;28;88025;-80
2022/01/17 11:12:10;;;;;;;33.10;15.90;;;20.80;55.30;;;;;;4949218;28;88510;-86
2022/01/17 11:14:37;;;;;;;29.35;14.88;;;20.80;55.20;;;;;;4949502;28;87636;-84
2022/01/17 11:17:15;;;;;;;33.75;16.05;;;20.80;55.20;;;;;;4950493;28;87889;-85
2022/01/17 11:22:30;;;;;;;30.67;15.32;;;20.80;55.00;;;;;;4952989;28;87065;-83
2022/01/17 11:24:57;;;;;;;28.15;13.75;;;20.80;54.90;;;;;;4952878;28;87243;-86
2022/01/17 11:27:23;;;;;;;24.52;13.98;;;20.80;55.00;;;;;;4952200;28;89344;-86
2022/01/17 11:29:50;;;;;;;26.77;13.13;;;20.70;54.90;;;;;;4953689;28;87872;-85
2022/01/17 11:32:16;;;;;;;29.85;14.55;;;20.70;55.00;;;;;;4953448;28;87679;-85
2022/01/17 11:34:42;;;;;;;26.42;13.55;;;20.80;55.20;;;;;;4953185;28;87510;-83
2022/01/17 11:37:09;;;;;;;28.80;14.15;;;20.80;55.10;;;;;;4952321;28;89998;-85
2022/01/17 11:39:51;;;;;;;25.83;12.70;;;20.80;55.00;;;;;;4953065;28;88646;-86
2022/01/17 11:42:46;;;;;;;26.58;12.95;;;20.80;55.00;;;;;;4952500;28;87059;-84
2022/01/17 11:45:24;;;;;;;24.35;13.70;;;20.80;54.80;;;;;;4952513;28;87501;-85
2022/01/17 11:47:59;;;;;;;25.33;13.95;;;20.80;54.60;;;;;;4952524;28;87964;-84
2022/01/17 11:50:27;;;;;;;24.23;12.50;;;20.80;54.50;;;;;;4951122;28;90106;-81
2022/01/17 11:52:56;;;;;;;29.50;13.30;;;20.80;54.50;;;;;;4943616;28;87500;-84
2022/01/17 11:55:40;;;;;;;26.75;13.68;;;20.80;54.40;;;;;;4952788;28;87129;-86
2022/01/17 11:58:24;;;;;;;28.30;14.13;;;20.80;54.10;;;;;;4952336;28;87885;-84
2022/01/17 12:01:09;;;;;;;22.65;12.45;;;20.80;53.90;;;;;;4952537;28;87920;-83
2022/01/17 12:03:40;;;;;;;26.67;13.60;;;20.80;54.30;;;;;;4950241;28;88639;-85
2022/01/17 12:06:27;;;;;;;22.13;13.65;;;20.80;54.10;;;;;;4952382;28;87940;-85
2022/01/17 12:09:24;;;;;;;22.08;13.52;;;20.80;54.00;;;;;;4952809;28;88080;-85
2022/01/17 12:11:55;;;;;;;28.23;13.40;;;20.80;53.80;;;;;;4945948;28;87065;-86
2022/01/17 12:14:27;;;;;;;24.13;12.35;;;20.80;53.50;;;;;;4952785;28;87056;-86
2022/01/17 12:17:03;;;;;;;20.80;11.38;;;20.80;53.70;;;;;;4952089;28;87498;-86
2022/01/17 12:19:29;;;;;;;23.70;11.93;;;20.80;54.00;;;;;;4952085;28;87670;-86
2022/01/17 12:22:07;;;;;;;20.90;11.65;;;20.80;54.00;;;;;;4951521;28;87314;-81
2022/01/17 12:24:37;;;;;;;21.27;11.07;;;20.80;54.00;;;;;;4952643;28;87976;-82
2022/01/17 12:27:15;;;;;;;23.42;12.15;;;20.80;54.20;;;;;;4951938;28;88060;-81
2022/01/17 12:29:55;;;;;;;23.80;12.88;;;20.80;54.00;;;;;;4949763;28;88667;-85
2022/01/17 12:32:23;;;;;;;22.10;12.25;;;20.80;54.00;;;;;;4950533;28;88791;-80
2022/01/17 12:35:09;;;;;;;19.55;11.85;;;20.80;53.70;;;;;;4951295;28;87788;-78
2022/01/17 12:38:03;;;;;;;19.65;11.93;;;20.80;53.60;;;;;;4950577;28;88022;-84
2022/01/17 12:40:40;;;;;;;25.50;12.73;;;20.80;53.70;;;;;;4951190;28;87727;-86
2022/01/17 12:43:05;;;;;;;24.45;12.55;;;20.80;53.60;;;;;;4951483;28;88105;-86
2022/01/17 12:45:39;;;;;;;21.17;11.25;;;20.80;53.70;;;;;;4952279;28;87224;-85
2022/01/17 12:48:13;;;;;;;21.75;11.07;;;20.80;53.40;;;;;;4952375;28;86977;-85
2022/01/17 12:50:41;;;;;;;21.15;11.23;;;20.80;53.40;;;;;;4949971;28;87549;-83
2022/01/17 12:53:10;;;;;;;18.95;10.88;;;20.80;53.40;;;;;;4950748;28;87838;-85
2022/01/17 12:55:41;;;;;;;21.40;10.88;;;20.80;53.70;;;;;;4951821;28;87935;-85
2022/01/17 12:58:14;;;;;;;19.75;10.93;;;20.80;53.50;;;;;;4952260;28;87472;-85
2022/01/17 13:00:44;;;;;;;22.85;10.75;;;20.80;54.00;;;;;;4946893;28;90075;-84
2022/01/17 13:03:12;;;;;;;21.10;10.48;;;20.80;54.00;;;;;;4950994;28;87795;-84
2022/01/17 13:05:56;;;;;;;20.40;9.93;;;20.90;54.80;;;;;;4952083;28;87239;-85
2022/01/17 13:08:23;;;;;;;21.67;10.10;;;20.90;54.40;;;;;;4952784;28;87540;-84